Time;durP1;ratioP1;P1;durP2;ratioP2;P2;SDS_P1;SDS_P2;PMS_P1;PMS_P2;Temp;Humidity;BMP_temperature;BMP_pressure;BME280_temperature;BME280_humidity;BME280_pressure;Samples;Min_cycle;Max_cycle;Signal;HPM_P1;HPM_P2
2022/05/23 00:03:02;;;;;;;2.57;1.23;;;;;;;;;;4986607;28;20178;-82
2022/05/23 00:06:06;;;;;;;3.63;1.50;;;;;;;;;;4986507;28;20178;-82
2022/05/23 00:09:11;;;;;;;4.13;1.50;;;;;;;;;;4986648;28;20633;-81
2022/05/23 00:12:16;;;;;;;2.70;1.57;;;;;;;;;;4987134;28;20175;-82
2022/05/23 00:15:20;;;;;;;4.30;1.50;;;;;;;;;;4988030;28;20170;-82
2022/05/23 00:18:23;;;;;;;3.03;1.50;;;;;;;;;;4983434;28;20216;-83
2022/05/23 00:21:28;;;;;;;2.13;1.40;;;;;;;;;;4994914;28;20181;-81
2022/05/23 00:24:32;;;;;;;2.90;1.50;;;;;;;;;;5005743;28;20197;-82
2022/05/23 00:27:39;;;;;;;3.33;1.43;;;;;;;;;;4995007;28;20225;-81
2022/05/23 00:30:48;;;;;;;2.47;1.40;;;;;;;;;;5006559;28;20217;-82
2022/05/23 00:37:15;;;;;;;3.30;1.20;;;;;;;;;;4993673;28;20229;-81
2022/05/23 00:40:36;;;;;;;3.37;1.40;;;;;;;;;;5005947;28;20174;-82
2022/05/23 00:43:40;;;;;;;4.27;1.40;;;;;;;;;;4995190;28;20185;-81
2022/05/23 00:47:01;;;;;;;2.47;1.40;;;;;;;;;;4995391;28;20181;-82
2022/05/23 00:50:06;;;;;;;1.27;1.00;;;;;;;;;;4982044;28;20209;-81
2022/05/23 00:53:12;;;;;;;2.90;1.30;;;;;;;;;;4975766;28;20182;-82
2022/05/23 00:56:19;;;;;;;2.87;1.30;;;;;;;;;;4975670;28;20186;-82
2022/05/23 00:59:29;;;;;;;3.00;1.33;;;;;;;;;;4975928;28;20198;-82
2022/05/23 01:02:36;;;;;;;2.30;1.50;;;;;;;;;;4986736;28;20178;-82
2022/05/23 01:05:41;;;;;;;2.37;1.10;;;;;;;;;;4974495;28;20205;-81
2022/05/23 01:08:46;;;;;;;4.17;1.10;;;;;;;;;;4974925;28;20218;-82
2022/05/23 01:11:50;;;;;;;4.50;1.40;;;;;;;;;;4994135;28;20560;-81
2022/05/23 01:14:56;;;;;;;2.07;1.23;;;;;;;;;;5004820;28;20182;-82
2022/05/23 01:18:01;;;;;;;3.40;1.43;;;;;;;;;;5006060;28;20221;-82
2022/05/23 01:21:11;;;;;;;2.67;1.23;;;;;;;;;;5006156;28;20182;-81
2022/05/23 01:24:29;;;;;;;1.63;1.33;;;;;;;;;;4982722;28;20190;-81
2022/05/23 01:27:37;;;;;;;2.77;1.23;;;;;;;;;;5004303;28;20217;-82
2022/05/23 01:30:43;;;;;;;1.97;1.20;;;;;;;;;;4983855;28;20565;-82
2022/05/23 01:33:57;;;;;;;2.10;1.33;;;;;;;;;;5005494;28;20186;-81
2022/05/23 01:37:02;;;;;;;3.73;1.30;;;;;;;;;;4982014;28;20174;-82
2022/05/23 01:40:16;;;;;;;2.87;1.50;;;;;;;;;;4973173;28;20182;-82
2022/05/23 01:43:27;;;;;;;2.73;1.43;;;;;;;;;;4974634;28;20186;-81
2022/05/23 01:47:07;;;;;;;2.57;1.23;;;;;;;;;;4984494;28;20186;-81
2022/05/23 01:50:24;;;;;;;2.57;1.30;;;;;;;;;;4979585;28;20213;-82
2022/05/23 01:53:30;;;;;;;1.80;1.10;;;;;;;;;;4993817;28;20177;-82
2022/05/23 01:56:43;;;;;;;3.33;1.63;;;;;;;;;;4992978;28;20182;-81
2022/05/23 02:03:18;;;;;;;4.23;1.50;;;;;;;;;;5007675;28;20197;-82
2022/05/23 02:06:26;;;;;;;2.67;1.30;;;;;;;;;;4993861;28;20177;-82
2022/05/23 02:09:35;;;;;;;2.57;1.20;;;;;;;;;;4993156;28;20684;-82
2022/05/23 02:12:46;;;;;;;3.97;1.50;;;;;;;;;;5002918;28;20170;-81
2022/05/23 02:15:53;;;;;;;3.13;1.60;;;;;;;;;;4991487;28;20197;-82
2022/05/23 02:19:13;;;;;;;2.80;1.40;;;;;;;;;;5002706;28;20189;-81
2022/05/23 02:22:19;;;;;;;3.47;1.53;;;;;;;;;;4991816;28;20510;-82
2022/05/23 02:25:29;;;;;;;3.07;1.40;;;;;;;;;;4977444;28;20193;-81
2022/05/23 02:28:33;;;;;;;3.50;1.60;;;;;;;;;;4983049;28;20221;-81
2022/05/23 02:31:37;;;;;;;2.67;1.50;;;;;;;;;;4960800;28;20566;-81
2022/05/23 02:34:44;;;;;;;1.33;1.23;;;;;;;;;;4961471;28;20182;-81
2022/05/23 02:37:48;;;;;;;3.77;1.67;;;;;;;;;;4991190;28;20236;-81
2022/05/23 02:40:56;;;;;;;2.70;1.40;;;;;;;;;;5002665;28;20174;-82
2022/05/23 02:44:00;;;;;;;3.93;1.40;;;;;;;;;;4991314;28;20668;-81
2022/05/23 02:47:06;;;;;;;1.67;1.23;;;;;;;;;;4991687;28;20696;-86
2022/05/23 02:50:15;;;;;;;1.17;1.00;;;;;;;;;;4980869;28;20182;-86
2022/05/23 02:53:21;;;;;;;2.73;1.37;;;;;;;;;;4980295;28;20517;-86
2022/05/23 02:56:28;;;;;;;3.23;1.13;;;;;;;;;;4980423;28;20641;-86
2022/05/23 02:59:33;;;;;;;3.10;1.20;;;;;;;;;;4971769;28;20189;-86
2022/05/23 03:06:10;;;;;;;1.73;1.20;;;;;;;;;;4971512;28;20630;-86
2022/05/23 03:09:14;;;;;;;3.30;1.30;;;;;;;;;;4982642;28;20186;-86
2022/05/23 03:12:18;;;;;;;4.20;1.50;;;;;;;;;;4959641;28;20213;-86
2022/05/23 03:15:22;;;;;;;2.73;1.20;;;;;;;;;;4960288;28;20523;-86
2022/05/23 03:18:28;;;;;;;1.67;1.33;;;;;;;;;;4969266;28;20724;-86
2022/05/23 03:28:29;;;;;;;5.33;1.60;;;;;;;;;;4990919;28;20229;-88
2022/05/23 03:31:33;;;;;;;3.13;1.60;;;;;;;;;;4979606;28;20553;-88
2022/05/23 03:34:38;;;;;;;2.30;1.57;;;;;;;;;;4979718;28;20181;-88
2022/05/23 03:37:42;;;;;;;2.27;1.30;;;;;;;;;;4979335;28;20229;-88
2022/05/23 03:40:47;;;;;;;3.60;1.53;;;;;;;;;;4990534;28;20197;-86
2022/05/23 03:43:51;;;;;;;2.00;1.33;;;;;;;;;;4980028;28;20548;-87
2022/05/23 03:46:55;;;;;;;3.20;1.60;;;;;;;;;;4990550;28;20205;-87
2022/05/23 03:49:59;;;;;;;3.10;1.43;;;;;;;;;;4979838;28;20537;-86
2022/05/23 03:53:04;;;;;;;3.00;1.43;;;;;;;;;;4979622;28;20675;-86
2022/05/23 03:56:10;;;;;;;2.17;1.40;;;;;;;;;;4979690;28;20173;-87
2022/05/23 03:59:19;;;;;;;4.30;1.67;;;;;;;;;;5001699;28;20186;-88
2022/05/23 04:02:33;;;;;;;2.17;1.87;;;;;;;;;;4980655;28;20173;-88
2022/05/23 04:05:40;;;;;;;2.37;1.57;;;;;;;;;;4979542;28;20189;-87
2022/05/23 04:08:54;;;;;;;2.23;1.13;;;;;;;;;;4961065;28;20230;-86
2022/05/23 04:11:59;;;;;;;2.80;1.20;;;;;;;;;;4960102;28;20218;-87
2022/05/23 04:15:04;;;;;;;2.13;1.47;;;;;;;;;;4960227;28;20638;-87
2022/05/23 04:18:09;;;;;;;4.37;1.40;;;;;;;;;;4959858;28;20222;-86
2022/05/23 04:21:14;;;;;;;3.23;1.40;;;;;;;;;;4970862;28;20178;-87
2022/05/23 04:24:22;;;;;;;4.93;1.50;;;;;;;;;;4987476;28;20668;-86
2022/05/23 04:27:35;;;;;;;3.93;1.57;;;;;;;;;;4984187;28;20217;-86
2022/05/23 04:30:40;;;;;;;4.03;1.30;;;;;;;;;;4982389;28;20201;-88
2022/05/23 04:37:07;;;;;;;2.80;1.70;;;;;;;;;;4993444;28;20229;-88
2022/05/23 04:40:23;;;;;;;2.90;1.67;;;;;;;;;;4984248;28;20190;-86
2022/05/23 04:43:28;;;;;;;2.17;1.40;;;;;;;;;;4982565;28;20177;-86
2022/05/23 04:46:32;;;;;;;3.10;1.40;;;;;;;;;;4994169;28;20186;-87
2022/05/23 04:49:50;;;;;;;3.07;1.60;;;;;;;;;;4983961;28;20182;-86
2022/05/23 04:53:16;;;;;;;3.40;1.97;;;;;;;;;;4985109;28;20174;-87
2022/05/23 04:56:43;;;;;;;3.27;1.57;;;;;;;;;;4996614;28;20620;-88
2022/05/23 04:59:55;;;;;;;5.13;1.83;;;;;;;;;;4983081;28;20177;-87
2022/05/23 05:03:03;;;;;;;3.77;1.60;;;;;;;;;;4982494;28;20178;-87
2022/05/23 05:06:22;;;;;;;9.57;2.03;;;;;;;;;;4983626;28;20186;-87
2022/05/23 05:09:26;;;;;;;2.60;1.80;;;;;;;;;;5004253;28;20189;-87
2022/05/23 05:12:38;;;;;;;2.60;1.53;;;;;;;;;;4992844;28;20217;-87
2022/05/23 05:15:43;;;;;;;3.00;1.80;;;;;;;;;;5004085;28;20181;-88
2022/05/23 05:18:59;;;;;;;2.67;1.90;;;;;;;;;;4992752;28;20218;-87
2022/05/23 05:22:21;;;;;;;2.57;1.87;;;;;;;;;;5003667;28;20182;-85
2022/05/23 05:25:52;;;;;;;4.23;2.10;;;;;;;;;;4984421;28;20669;-87
2022/05/23 05:29:01;;;;;;;6.83;1.90;;;;;;;;;;4987365;28;20213;-82
2022/05/23 05:32:14;;;;;;;4.57;2.13;;;;;;;;;;4991593;28;20206;-82
2022/05/23 05:35:36;;;;;;;3.43;2.10;;;;;;;;;;4995222;28;20197;-81
2022/05/23 05:38:48;;;;;;;4.30;2.20;;;;;;;;;;4989931;28;20573;-81
2022/05/23 05:42:28;;;;;;;6.03;2.13;;;;;;;;;;4984381;28;20626;-83
2022/05/23 05:45:41;;;;;;;3.67;1.93;;;;;;;;;;4952600;28;20202;-84
2022/05/23 05:49:16;;;;;;;4.37;2.67;;;;;;;;;;4995053;28;20217;-83
2022/05/23 05:52:24;;;;;;;4.83;2.20;;;;;;;;;;4992370;28;20565;-83
2022/05/23 05:55:41;;;;;;;4.17;2.20;;;;;;;;;;4982437;28;20201;-83
2022/05/23 05:58:46;;;;;;;4.67;2.10;;;;;;;;;;4992224;28;20684;-82
2022/05/23 06:01:52;;;;;;;3.10;2.30;;;;;;;;;;4992715;28;20194;-83
2022/05/23 06:04:56;;;;;;;3.83;2.00;;;;;;;;;;5003616;28;20178;-82
2022/05/23 06:11:34;;;;;;;3.07;1.97;;;;;;;;;;4992096;28;20672;-82
2022/05/23 06:14:57;;;;;;;6.00;2.10;;;;;;;;;;4983158;28;20186;-82
2022/05/23 06:18:01;;;;;;;5.27;2.20;;;;;;;;;;4991537;28;20225;-83
2022/05/23 06:21:09;;;;;;;2.97;1.93;;;;;;;;;;4992506;28;20174;-82
2022/05/23 06:24:16;;;;;;;6.17;2.37;;;;;;;;;;4980973;28;20185;-82
2022/05/23 06:27:26;;;;;;;7.70;1.90;;;;;;;;;;4992901;28;20217;-84
2022/05/23 06:30:42;;;;;;;14.27;3.90;;;;;;;;;;4982631;28;20181;-85
2022/05/23 06:33:55;;;;;;;9.80;3.37;;;;;;;;;;4982099;28;20170;-85
2022/05/23 06:37:03;;;;;;;4.53;2.80;;;;;;;;;;4981104;28;20518;-86
2022/05/23 06:40:11;;;;;;;4.13;2.27;;;;;;;;;;4991721;28;20633;-86
2022/05/23 06:43:34;;;;;;;4.07;2.30;;;;;;;;;;5005321;28;20178;-86
2022/05/23 06:46:59;;;;;;;5.40;2.37;;;;;;;;;;5002532;28;20518;-86
2022/05/23 06:50:21;;;;;;;3.90;2.90;;;;;;;;;;5002935;28;20181;-86
2022/05/23 06:53:45;;;;;;;9.63;3.50;;;;;;;;;;4983598;28;20511;-86
2022/05/23 06:57:01;;;;;;;5.63;2.97;;;;;;;;;;4992950;28;20653;-86
2022/05/23 07:00:09;;;;;;;6.50;3.10;;;;;;;;;;4980398;28;20178;-86
2022/05/23 07:03:14;;;;;;;5.10;2.83;;;;;;;;;;4980310;28;20657;-85
2022/05/23 07:13:26;;;;;;;3.60;2.80;;;;;;;;;;5001858;28;20213;-86
2022/05/23 07:16:31;;;;;;;5.90;3.50;;;;;;;;;;4984211;28;20198;-82
2022/05/23 07:19:36;;;;;;;6.70;3.47;;;;;;;;;;4990704;28;20205;-82
2022/05/23 07:22:44;;;;;;;5.20;3.40;;;;;;;;;;4991341;28;20185;-82
2022/05/23 07:25:50;;;;;;;8.67;4.23;;;;;;;;;;4971495;28;20186;-82
2022/05/23 07:29:14;;;;;;;7.83;4.13;;;;;;;;;;5012355;28;20537;-82
2022/05/23 07:32:19;;;;;;;7.20;4.20;;;;;;;;;;4979380;28;20213;-82
2022/05/23 07:35:25;;;;;;;5.37;4.23;;;;;;;;;;4979320;28;20640;-82
2022/05/23 07:38:35;;;;;;;6.47;4.20;;;;;;;;;;5002183;28;20225;-82
2022/05/23 07:41:44;;;;;;;10.00;4.70;;;;;;;;;;4974766;28;20189;-82
2022/05/23 07:44:49;;;;;;;8.90;4.70;;;;;;;;;;4990238;28;20190;-82
2022/05/23 07:47:56;;;;;;;6.60;4.50;;;;;;;;;;4976193;28;20220;-83
2022/05/23 07:51:03;;;;;;;9.40;5.27;;;;;;;;;;4980373;28;20189;-82
2022/05/23 08:00:51;;;;;;;9.63;6.00;;;;;;;;;;4975682;28;20178;-82
2022/05/23 08:04:01;;;;;;;9.40;5.73;;;;;;;;;;4982054;28;20181;-82
2022/05/23 08:07:12;;;;;;;9.77;5.80;;;;;;;;;;4995635;28;20221;-83
2022/05/23 08:10:24;;;;;;;7.73;5.83;;;;;;;;;;4996613;28;20189;-82
2022/05/23 08:13:31;;;;;;;7.70;5.23;;;;;;;;;;4994109;28;20209;-82
2022/05/23 08:16:36;;;;;;;7.70;4.83;;;;;;;;;;4995296;28;20189;-81
2022/05/23 08:19:40;;;;;;;9.90;4.97;;;;;;;;;;4984157;28;20521;-82
2022/05/23 08:23:07;;;;;;;8.80;4.50;;;;;;;;;;5006337;28;20189;-83
2022/05/23 08:26:21;;;;;;;5.27;3.93;;;;;;;;;;4995197;28;20194;-82
2022/05/23 08:29:27;;;;;;;7.67;4.10;;;;;;;;;;4995292;28;20193;-82
2022/05/23 08:32:42;;;;;;;6.17;4.17;;;;;;;;;;5005910;28;20209;-83
2022/05/23 08:35:52;;;;;;;4.70;3.67;;;;;;;;;;4984239;28;20177;-82
2022/05/23 08:39:01;;;;;;;6.07;3.47;;;;;;;;;;4981928;28;20232;-82
2022/05/23 08:42:28;;;;;;;3.93;3.23;;;;;;;;;;5006007;28;20186;-82
2022/05/23 08:46:01;;;;;;;4.40;3.23;;;;;;;;;;4999158;28;20174;-83
2022/05/23 08:49:34;;;;;;;5.37;3.70;;;;;;;;;;4965213;28;20210;-82
2022/05/23 08:52:42;;;;;;;5.63;2.83;;;;;;;;;;4990057;28;20210;-82
2022/05/23 08:56:18;;;;;;;5.27;3.10;;;;;;;;;;4994339;28;20197;-82
2022/05/23 08:59:37;;;;;;;7.37;3.10;;;;;;;;;;4994835;28;20186;-82
2022/05/23 09:02:54;;;;;;;4.37;2.50;;;;;;;;;;4982844;28;20641;-82
2022/05/23 09:06:39;;;;;;;5.70;2.40;;;;;;;;;;4992138;28;20194;-84
2022/05/23 09:09:44;;;;;;;7.40;2.43;;;;;;;;;;4996587;28;20193;-86
2022/05/23 09:12:50;;;;;;;5.30;2.40;;;;;;;;;;4984994;28;20213;-83
2022/05/23 09:15:59;;;;;;;3.00;1.90;;;;;;;;;;4989920;28;20189;-83
2022/05/23 09:19:14;;;;;;;3.67;2.03;;;;;;;;;;4981674;28;20227;-83
2022/05/23 09:22:27;;;;;;;4.40;2.23;;;;;;;;;;5017217;28;20183;-82
2022/05/23 09:25:32;;;;;;;3.93;2.20;;;;;;;;;;4992902;28;20192;-82
2022/05/23 09:28:39;;;;;;;3.87;2.00;;;;;;;;;;5004571;28;20218;-83
2022/05/23 09:31:51;;;;;;;2.75;1.90;;;;;;;;;;4994735;28;20186;-84
2022/05/23 09:34:58;;;;;;;3.35;2.03;;;;;;;;;;4994605;28;20177;-83
2022/05/23 09:38:29;;;;;;;4.47;1.90;;;;;;;;;;4984912;28;20264;-83
2022/05/23 09:49:03;;;;;;;4.57;1.48;;;;;;;;;;5016266;28;20225;-83
2022/05/23 09:52:19;;;;;;;4.32;2.00;;;;;;;;;;5003299;28;20540;-83
2022/05/23 09:55:31;;;;;;;3.58;1.80;;;;;;;;;;4993044;28;20191;-83
2022/05/23 09:58:37;;;;;;;4.38;1.40;;;;;;;;;;4984264;28;20221;-83
2022/05/23 10:01:41;;;;;;;3.25;1.85;;;;;;;;;;4990464;28;20294;-83
2022/05/23 10:04:46;;;;;;;4.95;1.70;;;;;;;;;;5003773;28;20522;-83
2022/05/23 10:07:54;;;;;;;5.03;1.60;;;;;;;;;;4981366;28;20218;-83
2022/05/23 10:11:01;;;;;;;5.38;1.80;;;;;;;;;;5002974;28;20530;-83
2022/05/23 10:14:17;;;;;;;4.38;1.83;;;;;;;;;;5015240;28;20227;-83
2022/05/23 10:17:27;;;;;;;4.38;1.92;;;;;;;;;;4992257;28;20228;-83
2022/05/23 10:20:37;;;;;;;3.50;1.90;;;;;;;;;;4980938;28;20187;-83
2022/05/23 10:23:59;;;;;;;4.85;1.60;;;;;;;;;;4981066;28;20585;-84
2022/05/23 10:27:15;;;;;;;5.93;1.92;;;;;;;;;;5003186;28;20193;-83
2022/05/23 10:30:21;;;;;;;4.05;1.45;;;;;;;;;;4991221;28;20200;-83
2022/05/23 10:33:28;;;;;;;3.63;2.03;;;;;;;;;;5015254;28;20550;-84
2022/05/23 10:36:33;;;;;;;2.90;1.55;;;;;;;;;;4995952;28;20665;-86
2022/05/23 10:43:20;;;;;;;4.97;2.20;;;;;;;;;;5022164;28;20179;-85
2022/05/23 10:46:27;;;;;;;8.38;2.00;;;;;;;;;;5010287;28;20191;-84
2022/05/23 10:49:50;;;;;;;3.95;2.13;;;;;;;;;;5007361;28;20566;-83
2022/05/23 10:53:01;;;;;;;5.07;1.70;;;;;;;;;;4999539;28;20211;-82
2022/05/23 10:56:18;;;;;;;3.53;1.50;;;;;;;;;;5010619;28;20193;-83
2022/05/23 10:59:35;;;;;;;4.32;1.23;;;;;;;;;;4979899;28;20571;-83
2022/05/23 11:03:18;;;;;;;7.28;1.60;;;;;;;;;;4991271;28;20647;-83
2022/05/23 11:07:00;;;;;;;4.50;1.60;;;;;;;;;;5001923;28;20192;-84
2022/05/23 11:10:08;;;;;;;2.92;1.45;;;;;;;;;;5002113;28;20678;-84
2022/05/23 11:13:21;;;;;;;8.73;1.45;;;;;;;;;;4996186;28;20561;-84
2022/05/23 11:16:52;;;;;;;3.20;1.60;;;;;;;;;;5020130;28;20186;-85
2022/05/23 11:20:41;;;;;;;3.00;1.55;;;;;;;;;;5009688;28;20226;-83
2022/05/23 11:23:51;;;;;;;5.40;2.00;;;;;;;;;;5010794;28;20547;-82
2022/05/23 11:34:32;;;;;;;3.38;1.55;;;;;;;;;;4989864;28;20208;-82
2022/05/23 11:37:45;;;;;;;6.75;1.88;;;;;;;;;;4999891;28;20196;-82
2022/05/23 11:41:05;;;;;;;6.53;1.77;;;;;;;;;;5032812;28;20227;-82
2022/05/23 11:44:50;;;;;;;3.60;1.67;;;;;;;;;;5033077;28;20189;-82
2022/05/23 11:47:57;;;;;;;4.85;1.40;;;;;;;;;;5021399;28;20524;-82
2022/05/23 11:51:22;;;;;;;6.28;1.40;;;;;;;;;;5009968;28;20215;-82
2022/05/23 11:54:31;;;;;;;3.70;1.70;;;;;;;;;;5009957;28;20562;-83
2022/05/23 11:57:40;;;;;;;5.00;1.40;;;;;;;;;;5001524;28;20187;-83
2022/05/23 12:01:15;;;;;;;5.57;1.65;;;;;;;;;;5002003;28;20212;-82
2022/05/23 12:04:19;;;;;;;5.18;1.75;;;;;;;;;;5002867;28;20521;-82
2022/05/23 12:07:36;;;;;;;4.40;1.60;;;;;;;;;;5020808;28;20206;-83
2022/05/23 12:10:43;;;;;;;3.08;1.60;;;;;;;;;;4998982;28;20220;-82
2022/05/23 12:13:49;;;;;;;5.47;1.70;;;;;;;;;;5021311;28;20231;-82
2022/05/23 12:16:57;;;;;;;4.55;1.42;;;;;;;;;;5022660;28;20185;-81
2022/05/23 12:20:06;;;;;;;7.70;2.05;;;;;;;;;;5009835;28;20225;-83
2022/05/23 12:23:15;;;;;;;6.50;1.75;;;;;;;;;;4998637;28;20200;-83
2022/05/23 12:26:26;;;;;;;4.78;1.73;;;;;;;;;;4998448;28;20190;-82
2022/05/23 12:29:36;;;;;;;4.07;1.70;;;;;;;;;;5009811;28;20222;-83
2022/05/23 12:32:40;;;;;;;5.35;1.70;;;;;;;;;;4990516;28;20544;-83
2022/05/23 12:36:05;;;;;;;4.85;1.60;;;;;;;;;;4991310;28;20189;-83
2022/05/23 12:39:36;;;;;;;5.03;1.42;;;;;;;;;;5000994;28;20221;-83
2022/05/23 12:43:16;;;;;;;4.82;1.40;;;;;;;;;;5009228;28;20647;-83
2022/05/23 12:46:32;;;;;;;5.22;1.67;;;;;;;;;;5016373;28;20177;-83
2022/05/23 12:49:59;;;;;;;7.78;1.70;;;;;;;;;;4982497;28;20264;-83
2022/05/23 12:53:12;;;;;;;5.75;1.70;;;;;;;;;;4985377;28;20197;-83
2022/05/23 12:56:38;;;;;;;7.57;1.77;;;;;;;;;;5023876;28;20198;-83
2022/05/23 12:59:50;;;;;;;7.10;1.80;;;;;;;;;;4993033;28;20218;-83
2022/05/23 13:03:10;;;;;;;4.53;1.67;;;;;;;;;;5021961;28;20200;-83
2022/05/23 13:06:27;;;;;;;5.38;2.05;;;;;;;;;;5012290;28;20200;-84
2022/05/23 13:09:41;;;;;;;4.55;1.65;;;;;;;;;;5000660;28;20220;-84
2022/05/23 13:13:01;;;;;;;9.43;1.90;;;;;;;;;;5001079;28;20205;-84
2022/05/23 13:16:25;;;;;;;5.55;1.75;;;;;;;;;;5015409;28;20185;-83
2022/05/23 13:22:51;;;;;;;5.75;1.75;;;;;;;;;;5004156;28;20185;-84
2022/05/23 13:25:57;;;;;;;5.47;1.80;;;;;;;;;;5006532;28;20185;-84
2022/05/23 13:29:01;;;;;;;6.70;1.88;;;;;;;;;;5003053;28;20540;-84
2022/05/23 13:32:12;;;;;;;4.97;1.90;;;;;;;;;;4992210;28;20193;-84
2022/05/23 13:35:25;;;;;;;6.63;1.80;;;;;;;;;;5003213;28;20218;-84
2022/05/23 13:38:34;;;;;;;5.80;2.03;;;;;;;;;;5003588;28;20633;-85
2022/05/23 13:41:39;;;;;;;6.37;1.90;;;;;;;;;;5006384;28;20743;-84
2022/05/23 13:44:43;;;;;;;6.38;2.17;;;;;;;;;;5000609;28;20189;-85
2022/05/23 13:48:04;;;;;;;5.57;1.80;;;;;;;;;;5022582;28;20197;-86
2022/05/23 13:51:14;;;;;;;8.18;2.30;;;;;;;;;;4999438;28;20722;-84
2022/05/23 13:54:24;;;;;;;5.32;1.60;;;;;;;;;;5000578;28;20213;-84
2022/05/23 13:57:42;;;;;;;6.07;1.77;;;;;;;;;;5010587;28;20197;-84
2022/05/23 14:00:52;;;;;;;4.35;1.98;;;;;;;;;;4980827;28;20229;-84
2022/05/23 14:04:05;;;;;;;6.78;2.28;;;;;;;;;;5000515;28;20189;-84
2022/05/23 14:07:12;;;;;;;4.88;1.80;;;;;;;;;;5004345;28;20174;-84
2022/05/23 14:10:22;;;;;;;5.38;2.05;;;;;;;;;;5010995;28;20224;-84
2022/05/23 14:13:29;;;;;;;7.55;2.03;;;;;;;;;;5011080;28;20201;-84
2022/05/23 14:16:34;;;;;;;4.28;1.58;;;;;;;;;;5000224;28;20173;-83
2022/05/23 14:19:50;;;;;;;3.53;2.03;;;;;;;;;;5010587;28;20221;-84
2022/05/23 14:22:58;;;;;;;10.80;2.17;;;;;;;;;;5022106;28;20221;-84
2022/05/23 14:26:06;;;;;;;7.80;2.30;;;;;;;;;;5011093;28;20170;-84
2022/05/23 14:29:13;;;;;;;4.28;1.95;;;;;;;;;;4999876;28;20221;-83
2022/05/23 14:32:25;;;;;;;5.22;2.10;;;;;;;;;;4996100;28;20189;-84
2022/05/23 14:35:35;;;;;;;6.90;2.40;;;;;;;;;;4982866;28;20217;-84
2022/05/23 14:38:43;;;;;;;6.18;1.90;;;;;;;;;;4983768;28;20193;-84
2022/05/23 14:41:49;;;;;;;6.85;2.00;;;;;;;;;;4993733;28;20189;-84
2022/05/23 14:45:11;;;;;;;6.20;2.08;;;;;;;;;;5033887;28;20193;-84
2022/05/23 14:48:21;;;;;;;5.25;1.90;;;;;;;;;;4999942;28;20181;-84
2022/05/23 14:51:29;;;;;;;5.60;1.85;;;;;;;;;;4999835;28;20184;-84
2022/05/23 15:01:41;;;;;;;8.85;2.05;;;;;;;;;;5002123;28;20180;-84
2022/05/23 15:04:46;;;;;;;7.53;2.20;;;;;;;;;;4980301;28;20187;-84
2022/05/23 15:08:00;;;;;;;6.10;2.35;;;;;;;;;;4987158;28;20185;-84
2022/05/23 15:11:05;;;;;;;4.75;2.45;;;;;;;;;;5001763;28;20215;-84
2022/05/23 15:14:12;;;;;;;5.90;2.60;;;;;;;;;;4992482;28;20210;-84
2022/05/23 15:17:18;;;;;;;6.47;2.28;;;;;;;;;;4999266;28;20172;-84
2022/05/23 15:20:23;;;;;;;9.43;2.80;;;;;;;;;;4999111;28;20563;-84
2022/05/23 15:23:27;;;;;;;6.82;2.55;;;;;;;;;;5010099;28;20199;-83
2022/05/23 15:26:33;;;;;;;11.05;2.97;;;;;;;;;;4999221;28;20192;-84
2022/05/23 15:29:37;;;;;;;7.60;2.28;;;;;;;;;;4998929;28;20218;-84
2022/05/23 15:32:42;;;;;;;9.27;2.65;;;;;;;;;;5010574;28;20180;-83
2022/05/23 15:35:46;;;;;;;9.50;2.60;;;;;;;;;;4999075;28;20211;-83
2022/05/23 15:38:50;;;;;;;7.37;2.40;;;;;;;;;;4999240;28;20644;-83
2022/05/23 15:41:56;;;;;;;10.43;2.53;;;;;;;;;;4998707;28;20181;-82
2022/05/23 15:45:07;;;;;;;18.07;2.90;;;;;;;;;;5021852;28;20174;-83
2022/05/23 15:48:11;;;;;;;11.73;2.53;;;;;;;;;;5011000;28;20517;-81
2022/05/23 15:51:16;;;;;;;5.83;2.47;;;;;;;;;;5021867;28;20188;-80
2022/05/23 15:54:25;;;;;;;6.57;2.23;;;;;;;;;;5011420;28;20212;-81
2022/05/23 15:57:33;;;;;;;6.80;2.30;;;;;;;;;;4999238;28;20192;-81
2022/05/23 16:00:38;;;;;;;8.07;2.10;;;;;;;;;;5021714;28;20219;-81
2022/05/23 16:03:42;;;;;;;5.70;2.27;;;;;;;;;;5034012;28;20183;-82
2022/05/23 16:06:46;;;;;;;7.73;2.07;;;;;;;;;;4998750;28;20199;-81
2022/05/23 16:09:51;;;;;;;5.40;2.30;;;;;;;;;;5006469;28;20225;-81
2022/05/23 16:13:00;;;;;;;9.40;2.20;;;;;;;;;;5010512;28;20204;-81
2022/05/23 16:16:07;;;;;;;4.33;2.00;;;;;;;;;;4998575;28;20221;-81
2022/05/23 16:19:15;;;;;;;8.73;2.40;;;;;;;;;;5009487;28;20216;-81
2022/05/23 16:22:23;;;;;;;7.30;2.30;;;;;;;;;;5004476;28;20190;-82
2022/05/23 16:25:27;;;;;;;7.70;2.10;;;;;;;;;;4983216;28;20176;-82
2022/05/23 16:28:33;;;;;;;3.73;2.07;;;;;;;;;;5003275;28;20190;-81
2022/05/23 16:31:37;;;;;;;7.63;2.20;;;;;;;;;;5013390;28;20182;-82
2022/05/23 16:38:04;;;;;;;5.50;2.00;;;;;;;;;;5009720;28;20193;-81
2022/05/23 16:41:08;;;;;;;8.60;2.10;;;;;;;;;;5036903;23;20228;-84
2022/05/23 16:44:14;;;;;;;5.23;1.83;;;;;;;;;;4988488;28;20177;-85
2022/05/23 16:47:18;;;;;;;6.00;2.13;;;;;;;;;;5002696;28;20189;-84
2022/05/23 16:50:22;;;;;;;9.43;2.20;;;;;;;;;;5024694;28;20222;-83
2022/05/23 16:53:26;;;;;;;4.77;1.67;;;;;;;;;;5002512;28;20178;-82
2022/05/23 16:56:30;;;;;;;3.73;1.70;;;;;;;;;;5013379;28;20212;-82
2022/05/23 16:59:35;;;;;;;6.40;2.13;;;;;;;;;;4993694;28;20188;-82
2022/05/23 17:02:39;;;;;;;10.70;2.20;;;;;;;;;;4993508;28;20561;-82
2022/05/23 17:05:44;;;;;;;7.43;1.87;;;;;;;;;;4982199;28;20510;-81
2022/05/23 17:08:48;;;;;;;6.93;2.20;;;;;;;;;;5007421;28;20189;-81
2022/05/23 17:11:52;;;;;;;5.00;2.10;;;;;;;;;;5001380;28;20187;-81
2022/05/23 17:14:56;;;;;;;6.27;2.27;;;;;;;;;;5001244;28;20693;-81
2022/05/23 17:18:00;;;;;;;7.93;1.97;;;;;;;;;;4998297;28;20191;-81
2022/05/23 17:21:06;;;;;;;6.87;2.10;;;;;;;;;;4998246;28;20225;-81
2022/05/23 17:24:10;;;;;;;5.73;2.20;;;;;;;;;;5003937;28;20522;-81
2022/05/23 17:27:14;;;;;;;7.07;2.30;;;;;;;;;;5004018;28;20178;-81
2022/05/23 17:30:20;;;;;;;9.40;2.00;;;;;;;;;;5004323;28;20220;-81
2022/05/23 17:33:25;;;;;;;10.70;2.60;;;;;;;;;;5012114;28;20189;-80
2022/05/23 17:36:29;;;;;;;4.33;2.20;;;;;;;;;;4990705;28;20222;-81
2022/05/23 17:39:34;;;;;;;6.90;2.30;;;;;;;;;;5014663;28;20204;-81
2022/05/23 17:42:38;;;;;;;8.13;2.50;;;;;;;;;;5011828;28;20188;-83
2022/05/23 17:45:42;;;;;;;7.53;3.17;;;;;;;;;;4996664;28;20184;-82
2022/05/23 17:48:50;;;;;;;9.47;3.00;;;;;;;;;;5001288;28;20656;-82
2022/05/23 17:51:55;;;;;;;11.13;3.07;;;;;;;;;;5012056;28;20176;-82
2022/05/23 17:54:59;;;;;;;11.83;2.93;;;;;;;;;;5011317;28;20706;-81
2022/05/23 17:58:03;;;;;;;5.30;1.57;;;;;;;;;;5011204;28;20196;-85
2022/05/23 18:01:09;;;;;;;3.77;1.30;;;;;;;;;;5000895;28;20220;-82
2022/05/23 18:04:13;;;;;;;6.43;1.43;;;;;;;;;;5022116;28;20548;-82
2022/05/23 18:07:18;;;;;;;6.13;1.30;;;;;;;;;;5011624;28;20192;-83
2022/05/23 18:10:22;;;;;;;3.90;1.50;;;;;;;;;;5035368;28;20216;-82
2022/05/23 18:13:26;;;;;;;5.37;1.67;;;;;;;;;;5011631;28;20197;-82
2022/05/23 18:19:53;;;;;;;7.73;1.40;;;;;;;;;;5022165;28;20221;-82
2022/05/23 18:22:57;;;;;;;10.53;1.43;;;;;;;;;;5011540;28;20188;-82
2022/05/23 18:26:02;;;;;;;4.90;1.60;;;;;;;;;;5022248;28;20173;-81
2022/05/23 18:29:08;;;;;;;6.87;1.30;;;;;;;;;;5022313;28;20177;-82
2022/05/23 18:32:13;;;;;;;7.97;1.97;;;;;;;;;;5021758;28;20200;-82
2022/05/23 18:35:18;;;;;;;4.07;1.70;;;;;;;;;;4997490;28;20217;-82
2022/05/23 18:38:22;;;;;;;2.53;1.50;;;;;;;;;;5010757;28;20180;-82
2022/05/23 18:41:27;;;;;;;9.57;2.13;;;;;;;;;;5010626;28;20223;-82
2022/05/23 18:44:33;;;;;;;7.57;1.70;;;;;;;;;;4999283;28;20189;-82
2022/05/23 18:47:38;;;;;;;7.37;1.73;;;;;;;;;;5010661;28;20189;-82
2022/05/23 18:50:42;;;;;;;7.87;1.83;;;;;;;;;;5010322;28;20216;-82
2022/05/23 18:53:47;;;;;;;3.93;1.87;;;;;;;;;;5011075;28;20185;-83
2022/05/23 18:56:51;;;;;;;7.33;2.13;;;;;;;;;;4987937;28;20218;-81
2022/05/23 18:59:57;;;;;;;21.70;2.80;;;;;;;;;;5010400;28;20212;-81
2022/05/23 19:03:01;;;;;;;8.53;2.60;;;;;;;;;;4999643;28;20181;-81
2022/05/23 19:06:05;;;;;;;12.03;2.37;;;;;;;;;;5004259;28;20529;-81
2022/05/23 19:09:09;;;;;;;11.60;2.43;;;;;;;;;;5008000;28;20196;-82
2022/05/23 19:12:15;;;;;;;7.43;2.33;;;;;;;;;;4991135;28;20633;-81
2022/05/23 19:15:20;;;;;;;9.27;2.30;;;;;;;;;;5001937;28;20205;-82
2022/05/23 19:18:24;;;;;;;15.10;2.37;;;;;;;;;;5003432;28;20193;-82
2022/05/23 19:21:28;;;;;;;8.17;2.07;;;;;;;;;;5033337;28;20216;-82
2022/05/23 19:24:34;;;;;;;4.90;2.10;;;;;;;;;;4999510;28;20185;-82
2022/05/23 19:27:39;;;;;;;6.20;1.70;;;;;;;;;;4999115;28;20189;-82
2022/05/23 19:30:45;;;;;;;5.33;2.80;;;;;;;;;;5021935;28;20216;-82
2022/05/23 19:33:49;;;;;;;5.27;1.83;;;;;;;;;;5000169;28;20188;-82
2022/05/23 19:36:53;;;;;;;8.80;2.10;;;;;;;;;;5020991;28;20213;-82
2022/05/23 19:39:57;;;;;;;4.27;1.80;;;;;;;;;;5010354;28;20224;-82
2022/05/23 19:43:03;;;;;;;6.73;2.93;;;;;;;;;;5021782;28;20520;-82
2022/05/23 19:46:11;;;;;;;5.97;2.10;;;;;;;;;;4987667;28;20189;-82
2022/05/23 19:49:15;;;;;;;3.03;1.80;;;;;;;;;;5011947;28;20188;-82
2022/05/23 19:52:19;;;;;;;5.80;1.80;;;;;;;;;;4999574;28;20675;-83
2022/05/23 19:55:25;;;;;;;5.77;1.83;;;;;;;;;;5002663;28;20200;-82
2022/05/23 19:58:31;;;;;;;4.87;1.90;;;;;;;;;;5037073;28;20189;-82
2022/05/23 20:08:31;;;;;;;3.97;1.80;;;;;;;;;;5048385;28;20185;-82
2022/05/23 20:11:35;;;;;;;5.73;2.20;;;;;;;;;;4983899;28;20217;-83
2022/05/23 20:18:05;;;;;;;4.70;1.90;;;;;;;;;;5013590;28;20177;-82
2022/05/23 20:21:09;;;;;;;6.33;2.20;;;;;;;;;;4994391;28;20561;-83
2022/05/23 20:24:13;;;;;;;6.23;2.13;;;;;;;;;;5002410;28;20197;-83